createdAt,value
2019-04-30T00:01:29.935Z,8.88
2019-04-30T00:04:00.991Z,8.84
2019-04-30T00:06:34.570Z,8.87
2019-04-30T00:09:01.545Z,8.82
2019-04-30T00:11:31.186Z,8.78
2019-04-30T00:14:00.660Z,8.77
2019-04-30T00:16:31.071Z,8.77
2019-04-30T00:19:01.438Z,8.73
2019-04-30T00:21:31.116Z,8.69
2019-04-30T00:24:05.355Z,8.66
2019-04-30T00:26:31.898Z,8.67
2019-04-30T00:29:01.418Z,8.72
2019-04-30T00:31:31.065Z,8.69
2019-04-30T00:34:01.463Z,8.66
2019-04-30T00:36:34.198Z,8.61
2019-04-30T00:39:02.130Z,8.60
2019-04-30T00:41:31.705Z,8.59
2019-04-30T00:44:01.277Z,8.58
2019-04-30T00:46:30.704Z,8.64
2019-04-30T00:49:09.340Z,8.64
2019-04-30T00:51:31.399Z,8.69
2019-04-30T00:54:00.943Z,8.74
2019-04-30T00:56:30.521Z,8.71
2019-04-30T00:59:02.404Z,8.64
2019-04-30T01:01:49.215Z,8.59
2019-04-30T01:04:24.663Z,8.60
2019-04-30T01:06:59.912Z,8.64
2019-04-30T01:09:25.936Z,8.64
2019-04-30T01:11:55.404Z,8.64
2019-04-30T01:14:28.320Z,8.65
2019-04-30T01:16:56.019Z,8.69
2019-04-30T01:19:30.031Z,8.66
2019-04-30T01:21:56.943Z,8.60
2019-04-30T01:24:31.597Z,8.65
2019-04-30T01:27:06.878Z,8.62
2019-04-30T01:29:41.486Z,8.52
2019-04-30T01:32:05.360Z,8.59
2019-04-30T01:34:35.053Z,8.51
2019-04-30T01:37:04.695Z,8.52
2019-04-30T01:39:34.139Z,8.45
2019-04-30T01:42:07.906Z,8.50
2019-04-30T01:44:36.514Z,8.54
2019-04-30T01:47:06.015Z,8.50
2019-04-30T01:49:41.940Z,8.51
2019-04-30T01:52:06.857Z,8.48
2019-04-30T01:54:36.292Z,8.44
2019-04-30T01:57:25.414Z,8.46
2019-04-30T02:02:43.794Z,8.49
2019-04-30T02:05:14.971Z,8.62
2019-04-30T02:07:46.045Z,8.59
2019-04-30T02:10:16.010Z,8.47
2019-04-30T02:12:45.510Z,8.47
2019-04-30T02:15:15.351Z,8.46
2019-04-30T02:17:46.475Z,8.49
2019-04-30T02:20:16.259Z,8.48
2019-04-30T02:22:45.854Z,8.49
2019-04-30T02:25:15.461Z,8.51
2019-04-30T02:27:44.913Z,8.58
2019-04-30T02:30:14.556Z,8.46
2019-04-30T02:32:44.421Z,8.42
2019-04-30T02:35:32.307Z,8.49
2019-04-30T02:38:20.231Z,8.47
2019-04-30T02:40:52.598Z,8.63
2019-04-30T02:43:24.225Z,8.54
2019-04-30T02:45:56.154Z,8.46
2019-04-30T02:48:29.454Z,8.41
2019-04-30T02:51:01.240Z,8.49
2019-04-30T02:53:53.094Z,8.36
2019-04-30T02:56:26.516Z,8.38
2019-04-30T02:58:55.408Z,8.46
2019-04-30T03:01:24.817Z,8.38
2019-04-30T03:03:54.413Z,8.40
2019-04-30T03:06:23.976Z,8.38
2019-04-30T03:08:53.527Z,8.40
2019-04-30T03:11:23.068Z,8.36
2019-04-30T03:13:52.507Z,8.34
2019-04-30T03:16:32.508Z,8.38
2019-04-30T03:19:03.543Z,8.38
2019-04-30T03:21:43.574Z,8.38
2019-04-30T03:24:13.252Z,8.39
2019-04-30T03:26:44.244Z,8.39
2019-04-30T03:29:13.702Z,8.42
2019-04-30T03:31:45.317Z,8.40
2019-04-30T03:34:24.287Z,8.36
2019-04-30T03:36:45.589Z,8.39
2019-04-30T03:39:15.231Z,8.34
2019-04-30T03:41:44.637Z,8.36
2019-04-30T03:44:21.548Z,8.33
2019-04-30T03:46:45.248Z,8.39
2019-04-30T03:49:14.676Z,8.48
2019-04-30T03:51:44.121Z,8.39
2019-04-30T03:54:13.562Z,8.53
2019-04-30T03:56:43.804Z,8.50
2019-04-30T03:59:13.484Z,8.49
2019-04-30T04:02:00.168Z,8.45
2019-04-30T04:04:31.375Z,8.40
2019-04-30T04:07:02.470Z,8.46
2019-04-30T04:12:20.401Z,8.44
2019-04-30T04:14:51.060Z,8.39
2019-04-30T04:17:21.873Z,8.43
2019-04-30T04:19:51.921Z,8.43
2019-04-30T04:22:23.161Z,8.39
2019-04-30T04:24:52.717Z,8.40
2019-04-30T04:27:22.159Z,8.35
2019-04-30T04:29:51.629Z,8.40
2019-04-30T04:32:24.304Z,8.47
2019-04-30T04:34:54.067Z,8.46
2019-04-30T04:37:25.012Z,8.47
2019-04-30T04:39:54.462Z,8.44
2019-04-30T04:42:25.407Z,8.48
2019-04-30T04:44:54.855Z,8.45
2019-04-30T04:47:24.264Z,8.46
2019-04-30T04:49:54.196Z,8.48
2019-04-30T04:52:23.698Z,8.42
2019-04-30T04:54:53.210Z,8.33
2019-04-30T04:57:23.310Z,8.34
2019-04-30T04:59:53.064Z,8.33
2019-04-30T05:02:36.079Z,8.33
2019-04-30T05:05:09.476Z,8.31
2019-04-30T05:07:39.901Z,8.33
2019-04-30T05:10:10.263Z,8.35
2019-04-30T05:12:39.988Z,8.35
2019-04-30T05:15:10.804Z,8.21
2019-04-30T05:17:40.223Z,8.27
2019-04-30T05:20:10.277Z,8.27
2019-04-30T05:22:39.698Z,8.30
2019-04-30T05:25:10.281Z,8.28
2019-04-30T05:27:39.685Z,8.33
2019-04-30T05:30:12.055Z,8.39
2019-04-30T05:32:40.822Z,8.40
2019-04-30T05:35:31.301Z,8.42
2019-04-30T05:38:00.688Z,8.43
2019-04-30T05:40:30.147Z,8.43
2019-04-30T05:43:00.391Z,8.42
2019-04-30T05:45:30.141Z,8.38
2019-04-30T05:47:59.579Z,8.37
2019-04-30T05:50:29.681Z,8.37
2019-04-30T05:52:59.319Z,8.40
2019-04-30T05:55:29.440Z,8.50
2019-04-30T05:58:01.569Z,8.52
2019-04-30T06:00:30.818Z,8.43
2019-04-30T06:03:00.327Z,8.61
2019-04-30T06:05:31.530Z,8.59
2019-04-30T06:08:01.044Z,8.59
2019-04-30T06:10:39.705Z,8.56
2019-04-30T06:13:16.762Z,8.67
2019-04-30T06:15:59.930Z,8.74
2019-04-30T06:18:29.405Z,8.75
2019-04-30T06:20:59.526Z,8.92
2019-04-30T06:23:29.461Z,9.04
2019-04-30T06:26:08.975Z,9.00
2019-04-30T06:28:31.566Z,9.12
2019-04-30T06:31:01.446Z,8.94
2019-04-30T06:33:31.484Z,9.13
2019-04-30T06:36:01.263Z,9.02
2019-04-30T06:38:30.869Z,9.10
2019-04-30T06:41:00.375Z,9.29
2019-04-30T06:43:30.646Z,9.27
2019-04-30T06:46:00.151Z,9.21
2019-04-30T06:48:30.229Z,9.27
2019-04-30T06:51:01.099Z,9.22
2019-04-30T06:53:30.541Z,9.29
2019-04-30T06:56:00.013Z,9.43
2019-04-30T06:58:29.502Z,9.57
2019-04-30T07:00:59.578Z,9.78
2019-04-30T07:03:29.217Z,10.04
2019-04-30T07:05:58.764Z,9.96
2019-04-30T07:08:54.673Z,9.73
2019-04-30T07:11:20.631Z,9.87
2019-04-30T07:13:57.754Z,9.64
2019-04-30T07:16:22.019Z,9.86
2019-04-30T07:18:51.577Z,9.91
2019-04-30T07:21:21.182Z,9.70
2019-04-30T07:23:50.664Z,9.72
2019-04-30T07:26:24.455Z,9.85
2019-04-30T07:28:55.316Z,9.94
2019-04-30T07:31:24.275Z,9.89
2019-04-30T07:33:54.144Z,9.79
2019-04-30T07:36:42.503Z,9.93
2019-04-30T07:38:57.025Z,10.15
2019-04-30T07:41:30.882Z,10.20
2019-04-30T07:43:59.394Z,10.11
2019-04-30T07:46:35.082Z,10.06
2019-04-30T07:49:01.764Z,9.98
2019-04-30T07:51:37.137Z,10.04
2019-04-30T07:54:02.437Z,10.36
2019-04-30T07:56:37.477Z,10.16
2019-04-30T07:59:03.174Z,10.35
2019-04-30T08:01:32.788Z,10.50
2019-04-30T08:04:03.855Z,10.65
2019-04-30T08:06:33.432Z,10.75
2019-04-30T08:09:04.669Z,10.84
2019-04-30T08:11:39.013Z,10.83
2019-04-30T08:14:06.557Z,10.28
2019-04-30T08:16:36.190Z,10.07
2019-04-30T08:19:05.753Z,10.46
2019-04-30T08:21:35.207Z,10.95
2019-04-30T08:24:04.706Z,10.86
2019-04-30T08:26:34.218Z,11.10
2019-04-30T08:29:03.817Z,11.15
2019-04-30T08:31:33.344Z,10.98
2019-04-30T08:34:02.832Z,10.82
2019-04-30T08:36:33.177Z,10.95
2019-04-30T08:39:02.902Z,10.75
2019-04-30T08:41:32.493Z,11.25
2019-04-30T08:44:01.937Z,11.52
2019-04-30T08:46:31.385Z,11.32
2019-04-30T08:49:01.066Z,11.08
2019-04-30T08:51:31.450Z,11.03
2019-04-30T08:54:01.279Z,10.96
2019-04-30T08:56:30.736Z,11.23
2019-04-30T08:59:00.222Z,11.48
2019-04-30T09:01:29.729Z,11.74
2019-04-30T09:03:59.803Z,11.37
2019-04-30T09:06:30.252Z,11.74
2019-04-30T09:09:00.567Z,11.31
2019-04-30T09:11:42.915Z,11.75
2019-04-30T09:14:01.266Z,12.13
2019-04-30T09:16:30.737Z,12.10
2019-04-30T09:19:00.187Z,12.44
2019-04-30T09:21:30.092Z,12.18
2019-04-30T09:23:59.674Z,12.03
2019-04-30T09:26:29.228Z,12.71
2019-04-30T09:28:59.341Z,13.38
2019-04-30T09:31:30.630Z,13.15
2019-04-30T09:34:00.931Z,13.06
2019-04-30T09:36:30.564Z,13.03
2019-04-30T09:39:01.720Z,12.28
2019-04-30T09:41:31.172Z,12.94
2019-04-30T09:44:00.617Z,13.71
2019-04-30T09:46:30.209Z,13.56
2019-04-30T09:49:00.742Z,13.29
2019-04-30T09:51:31.342Z,13.66
2019-04-30T09:54:03.629Z,13.48
2019-04-30T09:56:32.288Z,13.84
2019-04-30T09:59:01.768Z,13.32
2019-04-30T10:01:32.975Z,13.91
2019-04-30T10:04:02.868Z,15.15
2019-04-30T10:06:39.635Z,14.64
2019-04-30T10:09:05.361Z,14.52
2019-04-30T10:11:55.501Z,14.35
2019-04-30T10:14:25.113Z,15.47
2019-04-30T10:17:05.286Z,14.42
2019-04-30T10:19:34.793Z,14.82
2019-04-30T10:22:04.503Z,14.68
2019-04-30T10:24:39.204Z,15.24
2019-04-30T10:27:12.907Z,16.56
2019-04-30T10:29:41.218Z,17.49
2019-04-30T10:32:10.724Z,16.82
2019-04-30T10:34:40.353Z,17.22
2019-04-30T10:37:10.185Z,17.76
2019-04-30T10:39:43.091Z,17.87
2019-04-30T10:42:12.509Z,18.21
2019-04-30T10:44:41.959Z,16.12
2019-04-30T10:47:11.717Z,16.95
2019-04-30T10:49:41.216Z,15.03
2019-04-30T10:52:10.624Z,17.24
2019-04-30T10:54:40.942Z,18.73
2019-04-30T10:57:10.373Z,16.54
2019-04-30T10:59:40.684Z,16.43
2019-04-30T11:02:10.106Z,16.01
2019-04-30T11:04:39.700Z,15.01
2019-04-30T11:07:09.370Z,15.01
2019-04-30T11:09:39.392Z,13.97
2019-04-30T11:12:09.499Z,13.87
2019-04-30T11:14:39.340Z,12.96
2019-04-30T11:17:09.906Z,12.91
2019-04-30T11:19:39.927Z,13.29
2019-04-30T11:22:09.697Z,13.64
2019-04-30T11:24:54.029Z,14.32
2019-04-30T11:27:11.514Z,13.88
2019-04-30T11:29:41.838Z,13.80
2019-04-30T11:32:13.514Z,13.47
2019-04-30T11:34:43.146Z,13.18
2019-04-30T11:37:12.614Z,13.24
2019-04-30T11:39:42.331Z,13.12
2019-04-30T11:42:11.744Z,12.83
2019-04-30T11:44:44.194Z,12.68
2019-04-30T11:47:16.714Z,12.77
2019-04-30T11:49:46.161Z,13.37
2019-04-30T11:52:15.892Z,12.92
2019-04-30T11:54:51.434Z,13.31
2019-04-30T11:57:18.747Z,13.31
2019-04-30T11:59:48.382Z,13.75
2019-04-30T12:02:22.973Z,13.87
2019-04-30T12:04:52.427Z,13.79
2019-04-30T12:07:23.477Z,13.77
2019-04-30T12:10:03.500Z,14.56
2019-04-30T12:12:32.937Z,14.70
2019-04-30T12:15:02.885Z,15.61
2019-04-30T12:17:32.366Z,15.34
2019-04-30T12:20:01.804Z,14.34
2019-04-30T12:22:31.474Z,15.40
2019-04-30T12:25:03.245Z,15.12
2019-04-30T12:27:32.451Z,15.18
2019-04-30T12:30:02.001Z,15.41
2019-04-30T12:32:31.395Z,16.49
2019-04-30T12:35:01.028Z,15.26
2019-04-30T12:37:30.764Z,15.49
2019-04-30T12:40:00.213Z,15.05
2019-04-30T12:42:30.101Z,15.60
2019-04-30T12:44:59.657Z,15.70
2019-04-30T12:47:30.876Z,14.81
2019-04-30T12:50:05.125Z,15.72
2019-04-30T12:52:42.547Z,14.90
2019-04-30T12:55:25.810Z,14.10
2019-04-30T12:57:59.651Z,14.07
2019-04-30T13:00:29.417Z,15.57
2019-04-30T13:03:00.370Z,17.18
2019-04-30T13:05:30.077Z,15.62
2019-04-30T13:08:01.142Z,13.76
2019-04-30T13:10:31.750Z,13.94
2019-04-30T13:13:04.035Z,14.90
2019-04-30T13:15:34.856Z,15.13
2019-04-30T13:18:04.384Z,15.29
2019-04-30T13:20:34.012Z,15.59
2019-04-30T13:23:03.499Z,14.23
2019-04-30T13:25:35.481Z,14.47
2019-04-30T13:28:06.058Z,14.09
2019-04-30T13:30:35.847Z,14.21
2019-04-30T13:33:20.251Z,14.33
2019-04-30T13:35:49.322Z,13.95
2019-04-30T13:38:20.671Z,14.22
2019-04-30T13:40:54.542Z,13.52
2019-04-30T13:43:42.587Z,13.05
2019-04-30T13:46:12.123Z,13.13
2019-04-30T13:48:43.382Z,13.60
2019-04-30T13:51:12.843Z,14.30
2019-04-30T13:53:42.274Z,15.45
2019-04-30T13:56:11.874Z,15.72
2019-04-30T13:58:41.324Z,14.68
2019-04-30T14:01:10.772Z,13.67
2019-04-30T14:03:42.201Z,13.39
2019-04-30T14:06:13.468Z,13.61
2019-04-30T14:08:48.800Z,13.84
2019-04-30T14:11:18.990Z,13.69
2019-04-30T14:13:48.613Z,13.83
2019-04-30T14:16:18.075Z,13.23
2019-04-30T14:18:48.780Z,12.72
2019-04-30T14:21:19.397Z,12.65
2019-04-30T14:23:49.772Z,12.91
2019-04-30T14:26:19.586Z,13.08
2019-04-30T14:28:49.133Z,13.08
2019-04-30T14:31:18.718Z,13.13
2019-04-30T14:33:49.721Z,13.08
2019-04-30T14:36:20.805Z,12.66
2019-04-30T14:38:50.257Z,12.50
2019-04-30T14:41:20.295Z,12.28
2019-04-30T14:43:54.971Z,12.18
2019-04-30T14:46:42.013Z,12.67
2019-04-30T14:49:15.429Z,12.86
2019-04-30T14:51:44.664Z,12.98
2019-04-30T14:54:15.755Z,12.70
2019-04-30T14:57:03.881Z,12.30
2019-04-30T14:59:39.025Z,12.33
2019-04-30T15:02:26.609Z,12.61
2019-04-30T15:04:56.072Z,13.08
2019-04-30T15:07:25.787Z,12.58
2019-04-30T15:09:55.402Z,12.47
2019-04-30T15:12:24.948Z,12.14
2019-04-30T15:14:54.476Z,11.94
2019-04-30T15:17:24.029Z,11.89
2019-04-30T15:19:54.561Z,12.00
2019-04-30T15:22:24.223Z,11.83
2019-04-30T15:24:53.666Z,12.11
2019-04-30T15:27:23.117Z,12.28
2019-04-30T15:29:57.267Z,12.14
2019-04-30T15:32:24.058Z,11.96
2019-04-30T15:34:53.547Z,11.79
2019-04-30T15:37:23.949Z,12.12
2019-04-30T15:39:53.581Z,12.35
2019-04-30T15:42:23.434Z,12.43
2019-04-30T15:44:53.170Z,11.71
2019-04-30T15:47:23.326Z,11.55
2019-04-30T15:49:52.785Z,11.77
2019-04-30T15:52:22.241Z,11.57
2019-04-30T15:54:51.751Z,11.25
2019-04-30T15:57:21.194Z,11.48
2019-04-30T15:59:50.767Z,11.40
2019-04-30T16:02:24.916Z,11.38
2019-04-30T16:05:05.118Z,11.33
2019-04-30T16:07:36.362Z,10.96
2019-04-30T16:10:09.309Z,10.89
2019-04-30T16:12:55.926Z,10.70
2019-04-30T16:15:26.902Z,10.84
2019-04-30T16:17:59.510Z,10.74
2019-04-30T16:20:30.667Z,10.97
2019-04-30T16:23:00.126Z,10.92
2019-04-30T16:25:30.324Z,10.79
2019-04-30T16:27:59.876Z,10.62
2019-04-30T16:30:29.417Z,10.60
2019-04-30T16:32:59.636Z,10.82
2019-04-30T16:35:29.601Z,10.62
2019-04-30T16:37:59.519Z,10.49
2019-04-30T16:40:29.181Z,10.41
2019-04-30T16:42:58.640Z,10.32
2019-04-30T16:45:29.053Z,10.35
2019-04-30T16:47:58.664Z,10.42
2019-04-30T16:50:29.926Z,10.53
2019-04-30T16:52:59.542Z,10.53
2019-04-30T16:55:28.974Z,10.28
2019-04-30T16:57:59.676Z,10.29
2019-04-30T17:00:30.883Z,10.35
2019-04-30T17:03:02.008Z,10.25
2019-04-30T17:05:42.019Z,10.15
2019-04-30T17:08:16.123Z,9.95
2019-04-30T17:10:53.450Z,10.12
2019-04-30T17:13:33.448Z,10.12
2019-04-30T17:16:04.501Z,10.06
2019-04-30T17:18:34.005Z,9.83
2019-04-30T17:21:03.522Z,9.81
2019-04-30T17:23:32.960Z,9.80
2019-04-30T17:26:02.602Z,9.81
2019-04-30T17:28:32.062Z,9.89
2019-04-30T17:31:01.556Z,9.86
2019-04-30T17:33:31.027Z,9.76
2019-04-30T17:36:00.666Z,9.81
2019-04-30T17:38:31.585Z,9.79
2019-04-30T17:41:01.245Z,9.60
2019-04-30T17:43:30.729Z,9.61
2019-04-30T17:46:04.121Z,9.69
2019-04-30T17:48:32.795Z,9.67
2019-04-30T17:51:02.292Z,9.71
2019-04-30T17:53:33.323Z,9.69
2019-04-30T17:56:02.768Z,9.62
2019-04-30T17:58:32.343Z,9.71
2019-04-30T18:01:03.277Z,9.66
2019-04-30T18:03:32.807Z,9.62
2019-04-30T18:06:02.358Z,9.61
2019-04-30T18:08:31.800Z,9.61
2019-04-30T18:11:01.212Z,9.53
2019-04-30T18:13:30.699Z,9.60
2019-04-30T18:16:00.518Z,9.64
2019-04-30T18:18:34.498Z,9.61
2019-04-30T18:21:05.688Z,9.64
2019-04-30T18:23:39.535Z,9.60
2019-04-30T18:26:10.749Z,9.58
2019-04-30T18:28:40.341Z,9.66
2019-04-30T18:31:09.819Z,9.62
2019-04-30T18:33:39.280Z,9.62
2019-04-30T18:36:09.600Z,9.56
2019-04-30T18:38:39.273Z,9.54
2019-04-30T18:41:09.454Z,9.53
2019-04-30T18:43:40.547Z,9.48
2019-04-30T18:46:10.798Z,9.45
2019-04-30T18:48:40.546Z,9.57
2019-04-30T18:51:29.907Z,9.46
2019-04-30T18:53:43.215Z,9.56
2019-04-30T18:56:14.871Z,9.54
2019-04-30T18:58:43.815Z,9.51
2019-04-30T19:01:15.058Z,9.54
2019-04-30T19:03:44.572Z,9.47
2019-04-30T19:06:23.104Z,9.45
2019-04-30T19:08:48.517Z,9.44
2019-04-30T19:11:20.463Z,9.41
2019-04-30T19:14:00.000Z,9.50
2019-04-30T19:16:32.805Z,9.56
2019-04-30T19:19:12.686Z,9.54
2019-04-30T19:21:41.316Z,9.50
2019-04-30T19:24:10.763Z,9.40
2019-04-30T19:26:40.205Z,9.35
2019-04-30T19:29:10.055Z,9.39
2019-04-30T19:31:39.559Z,9.48
2019-04-30T19:34:09.735Z,9.50
2019-04-30T19:36:40.730Z,9.53
2019-04-30T19:39:11.913Z,9.57
2019-04-30T19:41:41.357Z,9.58
2019-04-30T19:44:11.186Z,9.50
2019-04-30T19:46:40.849Z,9.42
2019-04-30T19:49:10.384Z,9.28
2019-04-30T19:51:40.270Z,9.20
2019-04-30T19:54:11.399Z,9.25
2019-04-30T19:56:41.232Z,9.20
2019-04-30T19:59:10.958Z,9.33
2019-04-30T20:01:40.589Z,9.40
2019-04-30T20:04:10.476Z,9.37
2019-04-30T20:06:39.960Z,9.52
2019-04-30T20:09:09.627Z,9.44
2019-04-30T20:11:39.834Z,9.40
2019-04-30T20:14:10.404Z,9.45
2019-04-30T20:16:40.381Z,9.49
2019-04-30T20:19:09.999Z,9.49
2019-04-30T20:21:50.401Z,9.60
2019-04-30T20:24:10.833Z,9.61
2019-04-30T20:26:40.304Z,9.62
2019-04-30T20:29:09.763Z,9.66
2019-04-30T20:31:39.368Z,9.61
2019-04-30T20:34:09.259Z,9.61
2019-04-30T20:36:38.944Z,9.52
2019-04-30T20:39:11.001Z,9.51
2019-04-30T20:41:41.976Z,9.42
2019-04-30T20:44:11.676Z,9.38
2019-04-30T20:46:41.413Z,9.38
2019-04-30T20:49:10.913Z,9.38
2019-04-30T20:51:52.710Z,9.37
2019-04-30T20:54:11.579Z,9.44
2019-04-30T20:56:41.024Z,9.47
2019-04-30T20:59:10.978Z,9.35
2019-04-30T21:01:40.439Z,9.28
2019-04-30T21:04:10.009Z,9.20
2019-04-30T21:06:39.636Z,9.23
2019-04-30T21:09:11.913Z,9.24
2019-04-30T21:11:41.495Z,9.30
2019-04-30T21:14:11.006Z,9.34
2019-04-30T21:16:40.615Z,9.27
2019-04-30T21:19:10.232Z,9.35
2019-04-30T21:21:39.748Z,9.25
2019-04-30T21:24:09.606Z,9.23
2019-04-30T21:26:40.942Z,9.22
2019-04-30T21:29:15.356Z,9.26
2019-04-30T21:31:52.242Z,9.27
2019-04-30T21:34:26.072Z,9.27
2019-04-30T21:36:55.605Z,9.33
2019-04-30T21:39:25.097Z,9.32
2019-04-30T21:41:54.540Z,9.24
2019-04-30T21:44:23.988Z,9.30
2019-04-30T21:46:53.437Z,9.28
2019-04-30T21:49:22.882Z,9.33
2019-04-30T21:51:52.412Z,9.30
2019-04-30T21:54:21.843Z,9.34
2019-04-30T21:56:51.302Z,9.35
2019-04-30T21:59:24.462Z,9.35
2019-04-30T22:01:51.904Z,9.33
2019-04-30T22:04:21.341Z,9.32
2019-04-30T22:06:50.950Z,9.38
2019-04-30T22:09:21.079Z,9.23
2019-04-30T22:11:50.746Z,9.22
2019-04-30T22:14:20.313Z,9.20
2019-04-30T22:16:49.755Z,9.14
2019-04-30T22:19:19.229Z,9.14
2019-04-30T22:21:50.278Z,9.14
2019-04-30T22:24:19.698Z,9.11
2019-04-30T22:26:49.131Z,8.93
2019-04-30T22:29:19.137Z,8.94
2019-04-30T22:31:49.431Z,8.84
2019-04-30T22:34:18.937Z,8.90
2019-04-30T22:36:49.015Z,8.87
2019-04-30T22:39:20.633Z,8.86
2019-04-30T22:41:50.139Z,8.92
2019-04-30T22:44:19.551Z,8.89
2019-04-30T22:46:49.282Z,8.81
2019-04-30T22:49:18.815Z,8.84
2019-04-30T22:51:48.258Z,8.85
2019-04-30T22:54:17.730Z,8.83
2019-04-30T22:56:47.174Z,8.81
2019-04-30T22:59:18.187Z,8.80
2019-04-30T23:01:49.338Z,8.83
2019-04-30T23:04:20.487Z,8.82
2019-04-30T23:06:49.928Z,8.82
2019-04-30T23:09:19.542Z,8.84
2019-04-30T23:11:49.255Z,8.85
2019-04-30T23:14:18.697Z,8.75
2019-04-30T23:16:48.202Z,8.74
2019-04-30T23:19:17.639Z,8.79
2019-04-30T23:21:47.088Z,8.81
2019-04-30T23:24:16.472Z,8.76
2019-04-30T23:26:46.035Z,8.76
2019-04-30T23:29:15.428Z,8.70
2019-04-30T23:31:44.919Z,8.74
2019-04-30T23:34:18.169Z,8.72
2019-04-30T23:36:45.462Z,8.80
2019-04-30T23:39:15.370Z,8.81
2019-04-30T23:41:44.827Z,8.70
2019-04-30T23:44:14.340Z,8.72
2019-04-30T23:46:43.804Z,8.62
2019-04-30T23:49:13.384Z,8.60
2019-04-30T23:51:42.931Z,8.68
2019-04-30T23:54:12.337Z,8.68
2019-04-30T23:56:41.772Z,8.73
2019-04-30T23:59:11.241Z,8.76
